KLSE

La Crosse Regional Airport

La Crosse, Wisconsin, USA
METAR KLSE 161053Z AUTO 18005KT 10SM CLR M01/M05 A3007 RMK AO2 SLP195 T10111050
Observed Flight Rules
Dec-16 @ 10:53 UTC (57 minutes ago) Visual Flight Rules
Wind Visibility Clouds
180° at 5 knots 10 miles
  • Clear skies
Temperatures Readings
Current -1°C / 30°F
Dewpoint -5°C / 23°F
Humidity 75%
Altimeter 30.07" Hg
Pressure 1019.5 hPa
Elevation 199
METAR KLSE 161053Z AUTO 18005KT 10SM CLR M01/M05 A3007 RMK AO2 SLP195 T10111050
Observed Flight Rules
Dec-16 @ 10:53 UTC
(57 minutes ago)
VFR
Wind Visibility
180° at 5 knots 10 miles
Clouds
  • Clear skies
Temperature Dewpoint
-1°C / 30°F -5°C / 23°F
Humidity Altimeter Pressure
75% 30.07" Hg 1019.5 hPa